createdAt,value
2017-05-13T00:00:51.230Z,80.10
2017-05-13T00:03:28.350Z,79.90
2017-05-13T00:08:31.585Z,79.40
2017-05-13T00:21:12.718Z,78.80
2017-05-13T00:23:39.918Z,79.00
2017-05-13T00:26:11.298Z,79.20
2017-05-13T00:28:40.377Z,78.20
2017-05-13T00:31:08.464Z,78.30
2017-05-13T00:33:38.693Z,77.80
2017-05-13T00:43:45.014Z,77.80
2017-05-13T00:46:13.533Z,78.40
2017-05-13T00:51:17.284Z,79.60
2017-05-13T00:53:45.505Z,79.20
2017-05-13T00:56:12.806Z,80.30
2017-05-13T00:58:45.099Z,80.10
2017-05-13T01:01:13.686Z,78.50
2017-05-13T01:03:42.049Z,77.50
2017-05-13T01:13:48.025Z,78.50
2017-05-13T01:16:15.512Z,78.70
2017-05-13T01:21:18.356Z,78.70
2017-05-13T01:23:45.552Z,78.80
2017-05-13T01:28:49.343Z,78.20
2017-05-13T01:31:21.359Z,78.70
2017-05-13T01:36:21.893Z,79.10
2017-05-13T01:43:58.647Z,79.50
2017-05-13T01:46:28.992Z,78.50
2017-05-13T01:48:56.868Z,78.50
2017-05-13T01:53:54.597Z,78.30
2017-05-13T01:56:23.392Z,79.10
2017-05-13T01:58:51.860Z,79.50
2017-05-13T02:03:52.632Z,79.40
2017-05-13T02:08:54.359Z,79.50
2017-05-13T02:11:24.825Z,79.80
2017-05-13T02:16:24.938Z,79.50
2017-05-13T02:21:28.804Z,79.30
2017-05-13T02:31:35.285Z,79.80
2017-05-13T02:36:38.832Z,80.20
2017-05-13T02:39:08.844Z,80.40
2017-05-13T02:41:36.886Z,80.40
2017-05-13T02:49:09.579Z,80.40
2017-05-13T02:56:45.020Z,80.30
2017-05-13T02:59:15.612Z,80.60
2017-05-13T03:01:44.785Z,80.00
2017-05-13T03:04:14.933Z,80.20
2017-05-13T03:06:48.424Z,80.30
2017-05-13T03:11:53.080Z,80.20
2017-05-13T03:14:27.401Z,78.70
2017-05-13T03:17:00.782Z,78.70
2017-05-13T03:22:02.259Z,79.30
2017-05-13T03:24:31.571Z,79.00
2017-05-13T03:27:00.409Z,79.30
2017-05-13T03:32:02.472Z,79.20
2017-05-13T03:34:29.328Z,78.70
2017-05-13T03:37:01.312Z,79.00
2017-05-13T03:44:38.134Z,78.70
2017-05-13T03:47:07.884Z,79.70
2017-05-13T03:52:12.329Z,79.90
2017-05-13T03:54:39.416Z,79.70
2017-05-13T03:57:08.847Z,79.70
2017-05-13T03:59:37.011Z,79.90
2017-05-13T04:07:13.408Z,80.50
2017-05-13T04:12:14.238Z,80.60
2017-05-13T04:17:16.068Z,79.70
2017-05-13T04:19:43.224Z,79.30
2017-05-13T04:27:26.569Z,80.20
2017-05-13T04:30:01.156Z,79.90
2017-05-13T04:35:03.699Z,79.60
2017-05-13T04:37:45.319Z,79.60
2017-05-13T04:42:46.001Z,79.90
2017-05-13T04:47:47.069Z,80.00
2017-05-13T04:50:18.472Z,79.90
2017-05-13T04:55:27.369Z,79.70
2017-05-13T04:58:01.222Z,80.20
2017-05-13T05:00:30.333Z,80.10
2017-05-13T05:02:59.158Z,80.40
2017-05-13T05:05:30.709Z,80.50
2017-05-13T05:10:29.209Z,80.00
2017-05-13T05:18:01.951Z,79.70
2017-05-13T05:23:09.036Z,79.80
2017-05-13T05:25:37.639Z,80.50
2017-05-13T05:28:07.026Z,80.70
2017-05-13T05:33:07.452Z,81.00
2017-05-13T05:35:36.964Z,80.40
2017-05-13T05:40:38.157Z,79.30
2017-05-13T05:43:06.711Z,77.50
2017-05-13T05:45:34.065Z,77.50
2017-05-13T05:48:01.940Z,78.20
2017-05-13T05:50:34.889Z,78.30
2017-05-13T05:55:36.759Z,77.70
2017-05-13T05:58:11.898Z,77.40
2017-05-13T06:00:45.497Z,76.90
2017-05-13T06:05:59.936Z,77.30
2017-05-13T06:11:05.345Z,77.50
2017-05-13T06:24:04.706Z,77.80
2017-05-13T06:26:32.564Z,78.20
2017-05-13T06:31:42.008Z,76.50
2017-05-13T06:34:11.575Z,76.40
2017-05-13T06:36:40.935Z,76.40
2017-05-13T06:39:22.178Z,75.90
2017-05-13T06:47:18.331Z,76.10
2017-05-13T06:49:58.336Z,74.90
2017-05-13T06:55:45.709Z,74.70
2017-05-13T06:58:17.727Z,74.30
2017-05-13T07:00:54.426Z,74.30
2017-05-13T07:03:30.808Z,73.50
2017-05-13T07:14:16.941Z,73.50
2017-05-13T07:19:36.015Z,72.40
2017-05-13T08:03:51.887Z,67.50
2017-05-13T08:06:20.915Z,68.20
2017-05-13T08:08:49.429Z,65.60
2017-05-13T08:11:20.499Z,66.10
2017-05-13T08:13:49.682Z,65.00
2017-05-13T08:16:17.185Z,65.00
2017-05-13T08:18:46.629Z,65.70
2017-05-13T08:21:17.978Z,64.00
2017-05-13T08:23:47.465Z,62.90
2017-05-13T08:26:15.972Z,62.90
2017-05-13T08:28:49.908Z,63.60
2017-05-13T08:31:19.968Z,62.50
2017-05-13T08:33:48.806Z,63.40
2017-05-13T08:36:18.309Z,62.50
2017-05-13T08:38:45.075Z,61.80
2017-05-13T08:41:13.727Z,60.80
2017-05-13T08:43:45.954Z,60.60
2017-05-13T08:46:15.974Z,61.50
2017-05-13T08:48:45.954Z,62.20
2017-05-13T08:51:18.807Z,61.10
2017-05-13T08:53:50.581Z,60.40
2017-05-13T08:56:17.422Z,59.80
2017-05-13T08:58:45.521Z,59.90
2017-05-13T09:01:15.878Z,60.10
2017-05-13T09:03:46.032Z,61.50
2017-05-13T09:06:13.261Z,61.50
2017-05-13T09:08:40.044Z,61.30
2017-05-13T09:11:07.514Z,61.30
2017-05-13T09:13:35.076Z,61.40
2017-05-13T09:16:03.644Z,59.30
2017-05-13T09:18:31.233Z,55.90
2017-05-13T09:20:58.065Z,53.60
2017-05-13T09:23:24.881Z,53.60
2017-05-13T09:25:53.067Z,54.60
2017-05-13T09:28:21.744Z,53.90
2017-05-13T09:30:51.072Z,53.60
2017-05-13T09:33:20.398Z,55.40
2017-05-13T09:35:50.102Z,54.00
2017-05-13T09:38:17.260Z,53.60
2017-05-13T09:40:44.596Z,53.60
2017-05-13T09:43:13.704Z,53.60
2017-05-13T09:45:43.382Z,53.00
2017-05-13T09:48:11.618Z,53.70
2017-05-13T09:50:41.693Z,53.70
2017-05-13T09:53:10.719Z,51.80
2017-05-13T09:55:38.515Z,49.40
2017-05-13T09:58:05.289Z,49.80
2017-05-13T10:00:33.516Z,49.50
2017-05-13T10:03:00.486Z,49.30
2017-05-13T10:05:28.571Z,49.40
2017-05-13T10:07:57.561Z,50.10
2017-05-13T10:10:25.693Z,50.10
2017-05-13T10:12:54.196Z,47.90
2017-05-13T10:15:22.086Z,47.60
2017-05-13T10:17:48.896Z,47.60
2017-05-13T10:20:17.176Z,45.30
2017-05-13T10:22:43.558Z,45.20
2017-05-13T10:25:17.656Z,45.50
2017-05-13T10:27:46.007Z,44.10
2017-05-13T10:30:13.671Z,45.30
2017-05-13T10:32:41.177Z,45.40
2017-05-13T10:35:12.296Z,45.60
2017-05-13T10:37:40.345Z,46.50
2017-05-13T10:40:08.342Z,45.50
2017-05-13T10:45:14.367Z,46.20
2017-05-13T10:47:41.353Z,46.20
2017-05-13T10:50:09.742Z,45.30
2017-05-13T10:52:38.602Z,44.40
2017-05-13T10:55:07.361Z,45.40
2017-05-13T10:57:35.761Z,47.20
2017-05-13T11:00:04.423Z,47.00
2017-05-13T11:02:31.187Z,49.00
2017-05-13T11:05:00.067Z,50.20
2017-05-13T11:07:31.841Z,50.60
2017-05-13T11:09:59.834Z,53.50
2017-05-13T11:12:30.709Z,53.50
2017-05-13T11:15:00.135Z,63.10
2017-05-13T11:17:30.849Z,67.10
2017-05-13T11:20:02.774Z,68.80
2017-05-13T11:22:32.528Z,69.10
2017-05-13T11:25:00.404Z,69.20
2017-05-13T11:27:28.588Z,72.40
2017-05-13T11:29:55.520Z,74.40
2017-05-13T11:32:25.253Z,73.10
2017-05-13T11:34:53.578Z,73.10
2017-05-13T11:37:20.382Z,68.40
2017-05-13T11:39:48.053Z,69.80
2017-05-13T11:42:15.476Z,69.80
2017-05-13T11:44:45.200Z,63.60
2017-05-13T11:47:12.125Z,51.40
2017-05-13T11:49:38.905Z,48.20
2017-05-13T11:52:07.141Z,47.00
2017-05-13T11:54:37.940Z,47.20
2017-05-13T11:57:06.062Z,48.40
2017-05-13T11:59:34.347Z,49.60
2017-05-13T12:02:01.656Z,49.60
2017-05-13T12:04:32.859Z,56.30
2017-05-13T12:07:00.232Z,56.20
2017-05-13T12:09:27.427Z,55.10
2017-05-13T12:11:57.328Z,57.10
2017-05-13T12:14:25.821Z,50.20
2017-05-13T12:16:52.896Z,42.90
2017-05-13T12:19:21.590Z,42.40
2017-05-13T12:21:48.092Z,42.40
2017-05-13T12:24:18.063Z,35.40
2017-05-13T12:26:45.286Z,35.30
2017-05-13T12:29:16.189Z,34.70
2017-05-13T12:31:46.190Z,32.70
2017-05-13T12:34:13.608Z,32.70
2017-05-13T12:36:44.080Z,30.40
2017-05-13T12:39:11.641Z,31.10
2017-05-13T12:41:38.964Z,31.20
2017-05-13T12:44:07.544Z,35.50
2017-05-13T12:46:34.965Z,38.90
2017-05-13T12:49:02.595Z,38.10
2017-05-13T12:51:30.908Z,38.10
2017-05-13T12:53:58.360Z,43.10
2017-05-13T12:56:26.004Z,45.10
2017-05-13T12:58:54.257Z,47.00
2017-05-13T13:01:22.844Z,50.10
2017-05-13T13:03:52.955Z,47.20
2017-05-13T13:12:27.652Z,44.50
2017-05-13T13:14:54.591Z,39.30
2017-05-13T13:17:23.012Z,38.60
2017-05-13T13:19:52.470Z,34.70
2017-05-13T13:22:20.998Z,34.80
2017-05-13T13:24:52.893Z,29.70
2017-05-13T13:32:44.974Z,25.70
2017-05-13T13:35:11.868Z,24.00
2017-05-13T13:37:40.737Z,23.90
2017-05-13T13:42:45.430Z,21.40
2017-05-13T13:45:13.884Z,22.10
2017-05-13T13:47:41.989Z,22.00
2017-05-13T13:50:09.554Z,21.20
2017-05-13T13:52:36.496Z,20.60
2017-05-13T13:55:05.806Z,20.00
2017-05-13T13:57:33.173Z,19.90
2017-05-13T14:00:02.120Z,20.40
2017-05-13T14:02:30.400Z,22.00
2017-05-13T14:04:57.189Z,23.10
2017-05-13T14:07:25.109Z,22.40
2017-05-13T14:10:03.070Z,25.40
2017-05-13T14:12:35.092Z,27.80
2017-05-13T14:22:45.219Z,37.60
2017-05-13T14:28:11.621Z,37.30
2017-05-13T14:41:52.751Z,40.00
2017-05-13T14:44:22.590Z,39.90
2017-05-13T14:57:12.754Z,43.80
2017-05-13T14:59:41.846Z,46.40
2017-05-13T15:02:10.272Z,45.70
2017-05-13T15:12:18.707Z,38.70
2017-05-13T15:14:51.431Z,37.30
2017-05-13T15:25:22.648Z,31.80
2017-05-13T15:38:12.271Z,28.80
2017-05-13T15:43:13.122Z,29.10
2017-05-13T15:45:45.397Z,28.60
2017-05-13T15:48:15.120Z,27.50
2017-05-13T15:53:23.590Z,33.00
2017-05-13T15:58:23.185Z,31.60
2017-05-13T16:06:37.864Z,36.70
2017-05-13T16:09:08.539Z,38.30
2017-05-13T16:11:35.439Z,38.30
2017-05-13T16:14:04.529Z,39.60
2017-05-13T16:16:31.277Z,42.50
2017-05-13T16:18:58.163Z,43.60
2017-05-13T16:26:36.113Z,44.30
2017-05-13T16:29:10.697Z,44.70
2017-05-13T16:31:44.775Z,46.70
2017-05-13T16:39:40.435Z,47.20
2017-05-13T16:45:04.773Z,49.80
2017-05-13T16:50:14.345Z,50.00
2017-05-13T16:56:10.797Z,51.30
2017-05-13T17:01:19.727Z,52.60
2017-05-13T17:03:52.518Z,53.30
2017-05-13T17:06:20.979Z,53.70
2017-05-13T17:08:48.936Z,56.10
2017-05-13T17:16:26.059Z,55.40
2017-05-13T17:18:53.817Z,56.60
2017-05-13T17:21:26.666Z,58.30
2017-05-13T17:24:00.201Z,58.30
2017-05-13T17:26:29.357Z,55.90
2017-05-13T17:36:39.396Z,56.40
2017-05-13T17:42:30.882Z,58.80
2017-05-13T17:45:00.033Z,60.80
2017-05-13T17:47:50.433Z,60.80
2017-05-13T17:50:21.018Z,60.20
2017-05-13T17:52:49.626Z,60.20
2017-05-13T17:57:52.650Z,60.80
2017-05-13T18:02:59.201Z,62.80
2017-05-13T18:05:26.431Z,61.90
2017-05-13T18:07:52.933Z,61.90
2017-05-13T18:10:19.795Z,65.20
2017-05-13T18:12:47.924Z,65.20
2017-05-13T18:15:15.932Z,65.60
2017-05-13T18:17:44.767Z,62.50
2017-05-13T18:20:12.662Z,63.00
2017-05-13T18:30:23.489Z,64.90
2017-05-13T18:32:52.995Z,65.10
2017-05-13T18:35:25.817Z,65.70
2017-05-13T18:37:55.035Z,66.20
2017-05-13T18:40:22.687Z,65.40
2017-05-13T18:42:49.842Z,66.00
2017-05-13T18:45:18.570Z,66.40
2017-05-13T18:47:45.696Z,66.60
2017-05-13T18:50:12.950Z,67.00
2017-05-13T18:52:42.084Z,67.70
2017-05-13T18:55:09.602Z,67.70
2017-05-13T18:57:38.317Z,70.50
2017-05-13T19:00:05.561Z,70.10
2017-05-13T19:02:33.533Z,70.10
2017-05-13T19:05:02.945Z,69.90
2017-05-13T19:07:31.519Z,70.20
2017-05-13T19:10:02.829Z,70.80
2017-05-13T19:12:31.712Z,70.80
2017-05-13T19:15:00.307Z,70.50
2017-05-13T19:17:28.641Z,71.80
2017-05-13T19:19:56.067Z,71.80
2017-05-13T19:22:26.342Z,71.40
2017-05-13T19:27:25.107Z,72.60
2017-05-13T19:29:52.216Z,72.90
2017-05-13T19:32:20.362Z,73.20
2017-05-13T19:34:47.250Z,72.30
2017-05-13T19:37:15.205Z,72.90
2017-05-13T19:39:42.103Z,73.50
2017-05-13T19:42:10.673Z,73.80
2017-05-13T19:44:37.852Z,74.00
2017-05-13T19:47:05.286Z,74.10
2017-05-13T19:49:32.306Z,74.10
2017-05-13T19:52:00.488Z,72.70
2017-05-13T19:54:29.240Z,72.30
2017-05-13T19:56:58.252Z,72.20
2017-05-13T19:59:25.509Z,71.30
2017-05-13T20:01:56.484Z,71.00
2017-05-13T20:04:23.548Z,70.60
2017-05-13T20:06:50.434Z,69.90
2017-05-13T20:09:18.546Z,66.80
2017-05-13T20:11:47.253Z,65.80
2017-05-13T20:14:15.733Z,62.30
2017-05-13T20:16:42.259Z,62.30
2017-05-13T20:19:10.013Z,60.50
2017-05-13T20:21:37.314Z,61.70
2017-05-13T20:24:04.765Z,60.70
2017-05-13T20:26:31.773Z,61.10
2017-05-13T20:31:32.467Z,61.60
2017-05-13T20:34:01.510Z,60.70
2017-05-13T20:36:29.396Z,62.30
2017-05-13T20:38:56.578Z,62.80
2017-05-13T20:41:24.268Z,64.10
2017-05-13T20:43:51.391Z,64.10
2017-05-13T20:46:19.303Z,66.10
2017-05-13T20:48:46.162Z,67.70
2017-05-13T20:51:13.261Z,69.30
2017-05-13T20:53:40.407Z,69.30
2017-05-13T20:56:07.188Z,69.30
2017-05-13T20:58:35.563Z,69.70
2017-05-13T21:01:03.724Z,70.80
2017-05-13T21:03:34.849Z,70.70
2017-05-13T21:06:02.658Z,70.10
2017-05-13T21:08:31.267Z,69.90
2017-05-13T21:10:59.216Z,70.00
2017-05-13T21:13:27.221Z,72.10
2017-05-13T21:15:55.695Z,72.10
2017-05-13T21:18:28.317Z,70.80
2017-05-13T21:20:56.658Z,70.40
2017-05-13T21:23:23.454Z,70.40
2017-05-13T21:25:50.757Z,69.30
2017-05-13T21:28:20.834Z,68.70
2017-05-13T21:30:48.129Z,69.60
2017-05-13T21:33:15.680Z,70.30
2017-05-13T21:35:42.674Z,70.20
2017-05-13T21:40:42.293Z,71.40
2017-05-13T21:43:08.713Z,72.30
2017-05-13T21:45:36.193Z,71.40
2017-05-13T21:48:06.206Z,71.40
2017-05-13T21:50:33.309Z,74.40
2017-05-13T21:53:00.145Z,74.40
2017-05-13T21:55:26.601Z,74.40
2017-05-13T21:57:54.855Z,72.80
2017-05-13T22:02:53.364Z,73.00
2017-05-13T22:05:20.152Z,73.20
2017-05-13T22:07:47.230Z,73.50
2017-05-13T22:10:18.982Z,74.40
2017-05-13T22:12:46.889Z,73.90
2017-05-13T22:15:14.096Z,73.70
2017-05-13T22:17:40.865Z,73.70
2017-05-13T22:22:39.580Z,74.20
2017-05-13T22:25:06.427Z,74.00
2017-05-13T22:27:33.271Z,72.50
2017-05-13T22:30:07.219Z,73.20
2017-05-13T22:32:34.334Z,73.10
2017-05-13T22:35:02.075Z,74.70
2017-05-13T22:37:28.888Z,73.70
2017-05-13T22:39:56.310Z,72.90
2017-05-13T22:42:23.467Z,74.80
2017-05-13T22:44:50.618Z,74.80
2017-05-13T22:47:17.597Z,74.30
2017-05-13T22:49:44.621Z,75.20
2017-05-13T22:52:11.746Z,75.60
2017-05-13T22:54:39.709Z,75.60
2017-05-13T22:57:07.733Z,74.60
2017-05-13T22:59:34.506Z,74.90
2017-05-13T23:02:01.248Z,74.90
2017-05-13T23:04:28.264Z,75.30
2017-05-13T23:06:55.074Z,75.30
2017-05-13T23:09:21.830Z,74.10
2017-05-13T23:11:49.307Z,74.00
2017-05-13T23:14:16.011Z,74.00
2017-05-13T23:16:43.244Z,73.90
2017-05-13T23:19:10.332Z,73.50
2017-05-13T23:21:37.378Z,74.60
2017-05-13T23:24:04.479Z,74.30
2017-05-13T23:26:31.645Z,73.90
2017-05-13T23:28:59.165Z,73.70
2017-05-13T23:31:26.252Z,73.70
2017-05-13T23:34:20.301Z,73.70
2017-05-13T23:36:48.565Z,74.60
2017-05-13T23:39:18.789Z,74.20
2017-05-13T23:41:46.805Z,75.30
2017-05-13T23:44:13.631Z,74.40
2017-05-13T23:46:40.042Z,74.40
2017-05-13T23:49:07.120Z,74.80
2017-05-13T23:51:34.294Z,74.90
2017-05-13T23:54:00.696Z,74.90
2017-05-13T23:56:27.914Z,75.60
2017-05-13T23:58:54.308Z,75.80
